Time;durP1;ratioP1;P1;durP2;ratioP2;P2;SDS_P1;SDS_P2;PMS_P1;PMS_P2;Temp;Humidity;BMP_temperature;BMP_pressure;BME280_temperature;BME280_humidity;BME280_pressure;Samples;Min_cycle;Max_cycle;Signal;HPM_P1;HPM_P2
2023/06/23 00:01:34;;;;;;;19.15;14.70;;;17.90;99.90;;;;;;5092233;28;20085;-71
2023/06/23 00:04:00;;;;;;;18.25;16.27;;;17.90;99.90;;;;;;5091219;28;21564;-72
2023/06/23 00:06:26;;;;;;;18.30;16.10;;;17.90;99.90;;;;;;5077203;28;20659;-71
2023/06/23 00:08:51;;;;;;;18.23;15.00;;;17.80;99.90;;;;;;5075174;28;20043;-71
2023/06/23 00:11:19;;;;;;;19.40;16.45;;;17.80;99.90;;;;;;5094961;27;20047;-72
2023/06/23 00:13:44;;;;;;;18.75;15.55;;;17.80;99.90;;;;;;5090267;28;20094;-71
2023/06/23 00:16:10;;;;;;;17.08;15.30;;;17.80;99.90;;;;;;5096225;28;20123;-70
2023/06/23 00:18:39;;;;;;;18.90;15.77;;;17.80;99.90;;;;;;5090431;28;21224;-71
2023/06/23 00:21:06;;;;;;;17.52;15.73;;;17.80;99.90;;;;;;5096735;28;20445;-72
2023/06/23 00:23:33;;;;;;;19.40;16.80;;;17.70;99.90;;;;;;5102526;27;20490;-72
2023/06/23 00:25:59;;;;;;;18.88;16.92;;;17.70;99.90;;;;;;5091103;28;20051;-72
2023/06/23 00:28:24;;;;;;;20.08;16.52;;;17.70;99.90;;;;;;5094664;28;20044;-71
2023/06/23 00:30:51;;;;;;;19.73;16.55;;;17.70;99.90;;;;;;5110068;27;21728;-71
2023/06/23 00:33:17;;;;;;;18.00;16.13;;;17.70;99.90;;;;;;5095580;28;20710;-72
2023/06/23 00:35:43;;;;;;;19.85;17.73;;;17.70;99.90;;;;;;5097917;27;20043;-70
2023/06/23 00:38:09;;;;;;;18.40;16.48;;;17.80;99.90;;;;;;5086847;27;20044;-72
2023/06/23 00:40:36;;;;;;;20.23;17.38;;;17.70;99.90;;;;;;5092123;28;20043;-71
2023/06/23 00:43:02;;;;;;;;;;;17.70;99.90;;;;;;5107387;27;20298;-71
2023/06/23 00:45:27;;;;;;;19.70;17.60;;;17.70;99.90;;;;;;5096553;27;20395;-72
2023/06/23 00:47:54;;;;;;;20.42;16.10;;;17.70;99.90;;;;;;5074439;28;20079;-71
2023/06/23 00:50:21;;;;;;;19.75;17.25;;;17.70;99.90;;;;;;5095479;28;20052;-71
2023/06/23 00:52:51;;;;;;;18.88;16.00;;;17.70;99.90;;;;;;5087776;28;20500;-69
2023/06/23 00:55:27;;;;;;;20.77;17.55;;;17.70;99.90;;;;;;5076530;28;20059;-70
2023/06/23 00:57:55;;;;;;;18.20;16.25;;;17.70;99.90;;;;;;5111569;27;20051;-71
2023/06/23 01:00:21;;;;;;;;;;;17.60;99.90;;;;;;5073561;28;20035;-72
2023/06/23 01:02:49;;;;;;;19.30;16.45;;;17.60;99.90;;;;;;5094325;28;20463;-72
2023/06/23 01:05:39;;;;;;;18.83;16.20;;;17.60;99.90;;;;;;5092175;27;20035;-71
2023/06/23 01:08:25;;;;;;;18.27;15.52;;;17.60;99.90;;;;;;5099438;27;20047;-71
2023/06/23 01:11:06;;;;;;;16.15;14.45;;;17.60;99.90;;;;;;5091492;28;20140;-72
2023/06/23 01:13:38;;;;;;;18.38;15.88;;;17.60;99.90;;;;;;5088918;28;20043;-71
2023/06/23 01:16:40;;;;;;;17.80;15.13;;;17.60;99.90;;;;;;5097258;28;20054;-72
2023/06/23 01:19:09;;;;;;;17.05;15.00;;;17.60;99.90;;;;;;5112008;27;20060;-73
2023/06/23 01:22:08;;;;;;;17.92;15.15;;;17.60;99.90;;;;;;5081874;28;20108;-72
2023/06/23 01:24:44;;;;;;;17.05;15.25;;;17.60;99.90;;;;;;5109681;27;20777;-72
2023/06/23 01:27:38;;;;;;;19.92;14.52;;;17.60;99.90;;;;;;5064644;28;20391;-73
2023/06/23 01:30:06;;;;;;;17.00;15.20;;;17.60;99.90;;;;;;5097252;27;20047;-71
2023/06/23 01:32:41;;;;;;;16.80;14.52;;;17.60;99.90;;;;;;5078845;28;20043;-70
2023/06/23 01:35:13;;;;;;;15.70;14.13;;;17.60;99.90;;;;;;5092703;28;20044;-71
2023/06/23 01:37:44;;;;;;;16.58;13.98;;;17.60;99.90;;;;;;5083931;27;20052;-71
2023/06/23 01:40:13;;;;;;;17.00;13.95;;;17.60;99.90;;;;;;5075790;28;20175;-71
2023/06/23 01:42:48;;;;;;;18.15;13.32;;;17.60;99.90;;;;;;5083466;28;20049;-71
2023/06/23 01:45:14;;;;;;;16.20;13.10;;;17.60;99.90;;;;;;5084152;28;20052;-70
2023/06/23 01:47:43;;;;;;;14.93;13.27;;;17.60;99.90;;;;;;5086241;27;20097;-73
2023/06/23 01:50:12;;;;;;;15.73;13.05;;;17.60;99.90;;;;;;5094777;28;20063;-72
2023/06/23 01:52:39;;;;;;;17.25;13.27;;;17.60;99.90;;;;;;5074543;28;20155;-71
2023/06/23 01:55:07;;;;;;;14.38;11.80;;;17.60;99.90;;;;;;5073293;28;20051;-73
2023/06/23 01:57:34;;;;;;;;;;;17.60;99.90;;;;;;5108038;27;20048;-73
2023/06/23 02:00:11;;;;;;;14.98;11.93;;;17.60;99.90;;;;;;5090572;28;19994;-71
2023/06/23 02:02:38;;;;;;;13.13;11.40;;;17.60;99.90;;;;;;5094359;28;20052;-73
2023/06/23 02:05:05;;;;;;;15.02;12.65;;;17.60;99.90;;;;;;5096987;27;20546;-72
2023/06/23 02:07:32;;;;;;;15.63;12.45;;;17.60;99.90;;;;;;5091135;28;20040;-72
2023/06/23 02:09:59;;;;;;;16.60;13.02;;;17.60;99.90;;;;;;5094260;28;20489;-72
2023/06/23 02:12:24;;;;;;;15.77;12.82;;;17.60;99.90;;;;;;5092299;28;20035;-70
2023/06/23 02:14:51;;;;;;;15.20;13.60;;;17.60;99.90;;;;;;5090015;28;20043;-72
2023/06/23 02:17:17;;;;;;;14.70;12.85;;;17.50;99.90;;;;;;5090289;28;20091;-71
2023/06/23 02:19:47;;;;;;;15.23;12.45;;;17.50;99.90;;;;;;5073105;28;20035;-70
2023/06/23 02:22:26;;;;;;;16.88;13.05;;;17.50;99.90;;;;;;5105188;27;20513;-72
2023/06/23 02:24:53;;;;;;;16.63;13.13;;;17.60;99.90;;;;;;5109795;27;20039;-71
2023/06/23 02:27:21;;;;;;;13.70;11.82;;;17.50;99.90;;;;;;5093550;27;20635;-72
2023/06/23 02:29:48;;;;;;;14.82;12.10;;;17.50;99.90;;;;;;5087836;28;20043;-72
2023/06/23 02:32:16;;;;;;;14.63;11.95;;;17.50;99.90;;;;;;5111462;27;20043;-72
2023/06/23 02:34:46;;;;;;;12.18;10.60;;;17.50;99.90;;;;;;5096861;28;20431;-73
2023/06/23 02:37:16;;;;;;;13.80;10.55;;;17.50;99.90;;;;;;5090485;28;20048;-71
2023/06/23 02:39:47;;;;;;;13.73;10.25;;;17.50;99.90;;;;;;5092581;27;20062;-70
2023/06/23 02:42:15;;;;;;;11.43;9.30;;;17.50;99.90;;;;;;5110361;27;20043;-71
2023/06/23 02:44:49;;;;;;;13.65;10.65;;;17.50;99.90;;;;;;5092509;28;20482;-72
2023/06/23 02:47:18;;;;;;;15.02;11.05;;;17.50;99.90;;;;;;5090887;28;20743;-72
2023/06/23 02:49:47;;;;;;;15.32;10.32;;;17.50;99.90;;;;;;5091542;28;20130;-72
2023/06/23 02:52:15;;;;;;;12.13;10.50;;;17.50;99.90;;;;;;5095021;28;20051;-71
2023/06/23 02:54:48;;;;;;;13.32;10.35;;;17.50;99.90;;;;;;5096737;27;20502;-72
2023/06/23 02:57:18;;;;;;;14.80;10.48;;;17.50;99.90;;;;;;5090201;28;20075;-72
2023/06/23 02:59:45;;;;;;;13.15;9.95;;;17.50;99.90;;;;;;5072398;28;20047;-72
2023/06/23 03:02:13;;;;;;;;;;;17.50;99.90;;;;;;5076981;28;20051;-71
2023/06/23 03:04:41;;;;;;;14.27;10.57;;;17.50;99.90;;;;;;5071902;28;19931;-71
2023/06/23 03:07:10;;;;;;;12.77;11.20;;;17.50;99.90;;;;;;5091965;28;20758;-72
2023/06/23 03:09:36;;;;;;;14.73;11.32;;;17.50;99.90;;;;;;5087815;28;20479;-71
2023/06/23 03:12:02;;;;;;;16.80;12.05;;;17.50;99.90;;;;;;5093807;28;20047;-71
2023/06/23 03:14:28;;;;;;;15.18;11.27;;;17.50;99.90;;;;;;5090621;28;20046;-71
2023/06/23 03:16:59;;;;;;;15.02;11.63;;;17.50;99.90;;;;;;5093111;28;20036;-71
2023/06/23 03:19:43;;;;;;;15.38;12.25;;;17.50;99.90;;;;;;5095693;28;20502;-71
2023/06/23 03:22:29;;;;;;;15.27;11.95;;;17.50;99.90;;;;;;5092323;28;20082;-72
2023/06/23 03:25:02;;;;;;;14.85;12.52;;;17.50;99.90;;;;;;5090855;28;20067;-70
2023/06/23 03:27:28;;;;;;;16.63;13.07;;;17.50;99.90;;;;;;5089511;28;20052;-72
2023/06/23 03:30:02;;;;;;;15.98;12.65;;;17.50;99.90;;;;;;5081451;28;20051;-72
2023/06/23 03:32:33;;;;;;;14.93;12.88;;;17.50;99.90;;;;;;5092029;28;20066;-72
2023/06/23 03:35:10;;;;;;;16.50;12.50;;;17.50;99.90;;;;;;5093258;28;20056;-72
2023/06/23 03:37:40;;;;;;;14.05;11.98;;;17.50;99.90;;;;;;5094953;28;20044;-71
2023/06/23 03:40:11;;;;;;;15.68;13.13;;;17.50;99.90;;;;;;5073925;28;20040;-71
2023/06/23 03:42:43;;;;;;;16.35;12.60;;;17.50;99.90;;;;;;5083845;28;20562;-72
2023/06/23 03:45:11;;;;;;;13.90;11.95;;;17.50;99.90;;;;;;5106375;28;20059;-72
2023/06/23 03:47:39;;;;;;;14.82;13.32;;;17.50;99.90;;;;;;5091437;28;20052;-72
2023/06/23 03:50:16;;;;;;;14.23;12.60;;;17.50;99.90;;;;;;5072267;28;20048;-72
2023/06/23 03:52:43;;;;;;;14.23;12.02;;;17.50;99.90;;;;;;5081455;28;20057;-70
2023/06/23 03:55:12;;;;;;;15.05;11.73;;;17.50;99.90;;;;;;5107927;28;20429;-70
2023/06/23 03:57:40;;;;;;;12.88;11.23;;;17.50;99.90;;;;;;5088485;28;20052;-72
2023/06/23 04:00:06;;;;;;;14.77;11.23;;;17.40;99.90;;;;;;5082337;28;20102;-72
2023/06/23 04:02:34;;;;;;;12.63;11.32;;;17.50;99.90;;;;;;5069601;28;20037;-72
2023/06/23 04:05:01;;;;;;;16.73;12.07;;;17.50;99.90;;;;;;5087836;28;20122;-72
2023/06/23 04:07:28;;;;;;;13.27;11.50;;;17.50;99.90;;;;;;5088725;28;20165;-71
2023/06/23 04:09:55;;;;;;;14.00;11.43;;;17.50;99.90;;;;;;5097041;28;20663;-72
2023/06/23 04:12:22;;;;;;;13.77;11.45;;;17.50;99.90;;;;;;5085116;27;20043;-71
2023/06/23 04:14:51;;;;;;;13.27;11.02;;;17.50;99.90;;;;;;5109898;27;20032;-71
2023/06/23 04:17:21;;;;;;;14.77;11.18;;;17.40;99.90;;;;;;5088079;28;20036;-71
2023/06/23 04:19:50;;;;;;;12.93;10.45;;;17.40;99.90;;;;;;5091767;28;20087;-71
2023/06/23 04:22:18;;;;;;;15.48;11.48;;;17.40;99.90;;;;;;5067807;28;20055;-70
2023/06/23 04:24:46;;;;;;;13.60;12.18;;;17.50;99.90;;;;;;5087725;28;20182;-70
2023/06/23 04:27:14;;;;;;;14.35;11.18;;;17.50;99.90;;;;;;5079406;28;20138;-70
2023/06/23 04:29:44;;;;;;;15.43;11.35;;;17.40;99.90;;;;;;5094616;27;20560;-70
2023/06/23 04:32:11;;;;;;;16.02;11.32;;;17.50;99.90;;;;;;5072473;28;20085;-71
2023/06/23 04:34:37;;;;;;;14.88;10.95;;;17.50;99.90;;;;;;5076161;28;20048;-70
2023/06/23 04:37:26;;;;;;;13.27;10.93;;;17.50;99.90;;;;;;5075262;28;20055;-71
2023/06/23 04:39:58;;;;;;;13.77;11.25;;;17.50;99.90;;;;;;5095857;28;20054;-70
2023/06/23 04:42:46;;;;;;;14.45;11.20;;;17.50;99.90;;;;;;5089284;28;20044;-70
2023/06/23 04:45:16;;;;;;;16.25;11.05;;;17.60;99.90;;;;;;5091263;28;20055;-70
2023/06/23 04:47:45;;;;;;;12.00;10.25;;;17.60;99.90;;;;;;5098101;28;20047;-71
2023/06/23 04:50:15;;;;;;;14.48;10.40;;;17.50;99.90;;;;;;5091484;28;20059;-72
2023/06/23 04:52:46;;;;;;;13.15;10.98;;;17.60;99.90;;;;;;5094169;28;20130;-72
2023/06/23 04:55:17;;;;;;;16.77;11.93;;;17.60;99.90;;;;;;5113821;27;20047;-71
2023/06/23 04:57:45;;;;;;;13.40;11.18;;;17.60;99.90;;;;;;5091789;28;20086;-74
2023/06/23 05:00:16;;;;;;;15.55;11.60;;;17.60;99.90;;;;;;5093670;28;20466;-72
2023/06/23 05:02:45;;;;;;;13.45;11.15;;;17.60;99.90;;;;;;5097873;28;20061;-71
2023/06/23 05:05:14;;;;;;;15.30;11.13;;;17.70;99.90;;;;;;5076820;28;20044;-71
2023/06/23 05:07:41;;;;;;;13.95;11.23;;;17.70;99.90;;;;;;5112543;27;20055;-71
2023/06/23 05:10:08;;;;;;;17.48;11.38;;;17.70;99.90;;;;;;5100256;27;20126;-69
2023/06/23 05:12:37;;;;;;;15.27;10.85;;;17.70;99.90;;;;;;5088789;28;20881;-71
2023/06/23 05:15:04;;;;;;;13.07;10.48;;;17.70;99.90;;;;;;5075682;28;20052;-73
2023/06/23 05:17:34;;;;;;;15.23;11.18;;;17.70;99.90;;;;;;5077242;28;20044;-72
2023/06/23 05:20:03;;;;;;;14.55;10.93;;;17.70;99.90;;;;;;5091368;28;20078;-71
2023/06/23 05:22:31;;;;;;;15.13;10.48;;;17.70;99.90;;;;;;5110767;27;20050;-72
2023/06/23 05:25:00;;;;;;;16.90;10.43;;;17.70;99.90;;;;;;5096122;28;20043;-72
2023/06/23 05:27:30;;;;;;;15.25;10.80;;;17.80;99.90;;;;;;5111596;27;20495;-71
2023/06/23 05:29:58;;;;;;;12.00;9.93;;;17.80;99.90;;;;;;5085183;28;20051;-74
2023/06/23 05:32:28;;;;;;;15.43;10.85;;;17.80;99.90;;;;;;5094284;27;20043;-73
2023/06/23 05:34:58;;;;;;;15.23;10.90;;;17.80;99.90;;;;;;5110365;27;20058;-74
2023/06/23 05:37:25;;;;;;;13.30;10.60;;;17.80;99.90;;;;;;5079317;27;20055;-74
2023/06/23 05:39:52;;;;;;;13.63;11.95;;;17.80;99.90;;;;;;5104351;27;20047;-74
2023/06/23 05:42:19;;;;;;;16.02;12.18;;;17.80;99.90;;;;;;5084863;28;20123;-74
2023/06/23 05:44:45;;;;;;;15.35;11.40;;;17.90;99.90;;;;;;5074347;28;20080;-73
2023/06/23 05:47:18;;;;;;;14.67;11.23;;;17.90;99.90;;;;;;5071609;28;20180;-71
2023/06/23 05:49:45;;;;;;;16.15;11.38;;;17.90;99.90;;;;;;5090080;28;20047;-73
2023/06/23 05:52:16;;;;;;;13.90;11.23;;;17.90;99.90;;;;;;5088817;27;20051;-72
2023/06/23 05:54:45;;;;;;;12.93;11.40;;;17.90;99.90;;;;;;5093421;28;20073;-72
2023/06/23 05:57:23;;;;;;;15.30;11.65;;;17.90;99.90;;;;;;5066573;28;20060;-73
2023/06/23 06:00:00;;;;;;;17.63;12.55;;;17.90;99.90;;;;;;5083842;28;20058;-73
2023/06/23 06:02:28;;;;;;;;;;;17.90;99.90;;;;;;5076244;28;21724;-71
2023/06/23 06:04:58;;;;;;;16.75;11.35;;;17.80;99.90;;;;;;5082983;28;20394;-71
2023/06/23 06:07:26;;;;;;;14.52;11.43;;;17.80;99.90;;;;;;5090775;28;20553;-71
2023/06/23 06:09:54;;;;;;;15.88;12.15;;;17.80;99.90;;;;;;5075945;28;20047;-72
2023/06/23 06:12:19;;;;;;;;;;;17.80;99.90;;;;;;5075144;28;20165;-72
2023/06/23 06:14:46;;;;;;;13.15;11.45;;;17.80;99.90;;;;;;5086003;28;19923;-70
2023/06/23 06:17:14;;;;;;;15.63;11.32;;;17.80;99.90;;;;;;5077233;28;20048;-74
2023/06/23 06:19:41;;;;;;;14.48;11.15;;;17.90;99.90;;;;;;5095831;27;20044;-72
2023/06/23 06:22:08;;;;;;;;;;;17.90;99.90;;;;;;5083075;28;20376;-72
2023/06/23 06:24:35;;;;;;;17.02;11.40;;;17.90;99.90;;;;;;5089270;28;19945;-71
2023/06/23 06:27:05;;;;;;;15.63;11.07;;;17.90;99.90;;;;;;5083240;28;20047;-72
2023/06/23 06:29:35;;;;;;;13.05;11.30;;;17.90;99.90;;;;;;5102992;27;20036;-72
2023/06/23 06:32:06;;;;;;;15.80;10.88;;;18.00;99.90;;;;;;5088315;28;20062;-72
2023/06/23 06:34:33;;;;;;;15.98;12.05;;;18.00;99.90;;;;;;5068655;28;20048;-70
2023/06/23 06:37:03;;;;;;;14.00;11.55;;;18.00;99.90;;;;;;5088017;28;20375;-72
2023/06/23 06:39:30;;;;;;;13.80;11.30;;;18.10;99.90;;;;;;5083817;28;20046;-71
2023/06/23 06:41:59;;;;;;;14.70;11.13;;;18.10;99.90;;;;;;5089481;28;20051;-71
2023/06/23 06:44:25;;;;;;;16.77;10.90;;;18.10;99.90;;;;;;5086002;28;20044;-73
2023/06/23 06:46:52;;;;;;;16.15;10.57;;;18.10;99.90;;;;;;5091792;28;20497;-72
2023/06/23 06:49:18;;;;;;;;;;;18.10;99.90;;;;;;5085144;28;20055;-72
2023/06/23 06:51:45;;;;;;;13.82;11.48;;;18.10;99.90;;;;;;5088930;28;19967;-71
2023/06/23 06:54:11;;;;;;;12.98;11.15;;;18.00;99.90;;;;;;5088600;28;20586;-71
2023/06/23 06:56:38;;;;;;;13.95;11.93;;;18.10;99.90;;;;;;5082723;28;20040;-72
2023/06/23 06:59:04;;;;;;;15.13;11.52;;;18.10;99.90;;;;;;5067653;28;20070;-72
2023/06/23 07:01:30;;;;;;;12.65;10.85;;;18.00;99.90;;;;;;5089175;28;20480;-71
2023/06/23 07:03:56;;;;;;;12.80;11.07;;;18.10;99.90;;;;;;5091832;28;20051;-72
2023/06/23 07:06:22;;;;;;;15.30;11.27;;;18.10;99.90;;;;;;5068752;28;20038;-72
2023/06/23 07:08:48;;;;;;;14.10;10.88;;;18.20;99.90;;;;;;5090134;28;20699;-72
2023/06/23 07:11:13;;;;;;;14.68;11.07;;;18.20;99.90;;;;;;5085607;28;20036;-72
2023/06/23 07:13:39;;;;;;;14.30;10.90;;;18.30;99.90;;;;;;5082018;28;20083;-73
2023/06/23 07:16:09;;;;;;;12.77;10.32;;;18.30;99.90;;;;;;5088199;28;20422;-72
2023/06/23 07:18:35;;;;;;;14.65;10.55;;;18.30;99.90;;;;;;5082949;28;20091;-73
2023/06/23 07:21:03;;;;;;;13.63;10.38;;;18.40;99.90;;;;;;5092343;28;20138;-74
2023/06/23 07:23:28;;;;;;;13.93;10.88;;;18.50;99.90;;;;;;5089707;28;20485;-75
2023/06/23 07:25:54;;;;;;;12.27;9.60;;;18.60;99.90;;;;;;5088792;28;20170;-75
2023/06/23 07:28:20;;;;;;;14.38;10.63;;;18.70;99.90;;;;;;5086007;28;20075;-74
2023/06/23 07:30:46;;;;;;;11.73;9.63;;;18.90;99.90;;;;;;5076329;28;20070;-75
2023/06/23 07:33:11;;;;;;;12.00;9.15;;;19.00;99.90;;;;;;5089392;28;20149;-75
2023/06/23 07:35:38;;;;;;;13.55;9.45;;;19.20;99.90;;;;;;5073985;28;20040;-71
2023/06/23 07:38:04;;;;;;;11.27;8.73;;;19.30;99.90;;;;;;5083223;28;20048;-71
2023/06/23 07:40:29;;;;;;;10.90;8.45;;;19.40;99.90;;;;;;5083929;28;20063;-77
2023/06/23 07:42:55;;;;;;;12.15;8.35;;;19.60;99.90;;;;;;5073399;28;20044;-74
2023/06/23 07:45:21;;;;;;;10.32;8.02;;;19.70;99.90;;;;;;5095534;28;20152;-74
2023/06/23 07:47:46;;;;;;;10.68;8.73;;;19.80;99.90;;;;;;5095672;28;20407;-74
2023/06/23 07:50:12;;;;;;;10.50;7.63;;;19.90;99.90;;;;;;5092231;28;20059;-75
2023/06/23 07:52:38;;;;;;;10.10;7.70;;;20.00;99.90;;;;;;5092201;28;20048;-75
2023/06/23 07:55:05;;;;;;;12.37;7.40;;;20.00;99.90;;;;;;5083444;28;20055;-78
2023/06/23 07:57:30;;;;;;;10.90;7.40;;;20.00;99.90;;;;;;5105370;27;20297;-78
2023/06/23 07:59:56;;;;;;;9.60;7.28;;;20.00;99.90;;;;;;5080185;28;20069;-74
2023/06/23 08:02:22;;;;;;;9.77;6.25;;;20.10;99.90;;;;;;5097903;28;20272;-74
2023/06/23 08:04:47;;;;;;;10.93;6.70;;;20.10;99.90;;;;;;5073427;28;20134;-74
2023/06/23 08:07:13;;;;;;;10.43;6.70;;;20.20;99.90;;;;;;5079261;28;20055;-74
2023/06/23 08:09:39;;;;;;;8.45;6.10;;;20.30;99.90;;;;;;5088915;28;20040;-75
2023/06/23 08:12:05;;;;;;;10.40;7.10;;;20.40;99.90;;;;;;5088363;28;20677;-75
2023/06/23 08:14:31;;;;;;;7.75;6.50;;;20.60;99.90;;;;;;5088786;28;20050;-76
2023/06/23 08:16:56;;;;;;;9.27;6.40;;;20.70;99.90;;;;;;5071514;28;20051;-76
2023/06/23 08:19:22;;;;;;;9.27;5.90;;;20.80;99.90;;;;;;5093952;28;20130;-76
2023/06/23 08:21:54;;;;;;;7.63;5.50;;;20.90;99.90;;;;;;5100428;28;20050;-76
2023/06/23 08:24:20;;;;;;;7.95;5.95;;;21.10;99.90;;;;;;5100572;28;20079;-78
2023/06/23 08:26:46;;;;;;;10.57;5.80;;;21.10;99.90;;;;;;5081926;28;20154;-76
2023/06/23 08:29:12;;;;;;;9.23;5.97;;;21.20;99.90;;;;;;5098114;28;20055;-76
2023/06/23 08:31:37;;;;;;;8.32;5.80;;;21.40;99.90;;;;;;5077102;28;20039;-76
2023/06/23 08:34:03;;;;;;;8.63;5.63;;;21.40;99.90;;;;;;5096316;28;20128;-74
2023/06/23 08:36:28;;;;;;;8.75;5.97;;;21.50;99.90;;;;;;5080488;28;20386;-74
2023/06/23 08:38:54;;;;;;;7.13;5.50;;;21.60;99.90;;;;;;5094448;28;20035;-70
2023/06/23 08:41:21;;;;;;;8.93;5.65;;;21.60;99.90;;;;;;5100332;28;20076;-73
2023/06/23 08:43:48;;;;;;;8.77;5.55;;;21.70;99.90;;;;;;5078656;28;20044;-74
2023/06/23 08:46:15;;;;;;;6.95;4.93;;;21.70;99.90;;;;;;5092887;28;20047;-75
2023/06/23 08:48:46;;;;;;;7.63;4.95;;;21.80;99.90;;;;;;5098805;28;20039;-74
2023/06/23 08:51:15;;;;;;;8.50;4.90;;;21.90;99.90;;;;;;5094654;28;20470;-73
2023/06/23 08:53:41;;;;;;;8.23;5.15;;;22.00;99.90;;;;;;5099690;28;20575;-75
2023/06/23 08:56:08;;;;;;;8.20;5.30;;;22.10;99.90;;;;;;5098466;28;21142;-72
2023/06/23 08:58:34;;;;;;;8.38;5.68;;;22.20;99.90;;;;;;5095520;28;20051;-74
2023/06/23 09:00:59;;;;;;;6.55;5.22;;;22.20;99.90;;;;;;5080506;28;20051;-73
2023/06/23 09:03:25;;;;;;;10.43;5.70;;;22.30;99.90;;;;;;5077384;28;20057;-73
2023/06/23 09:05:51;;;;;;;6.28;4.97;;;22.40;99.90;;;;;;5078293;28;20051;-74
2023/06/23 09:08:16;;;;;;;7.97;4.78;;;22.40;99.90;;;;;;5091671;28;20106;-74
2023/06/23 09:10:43;;;;;;;6.88;5.07;;;22.40;99.90;;;;;;5080435;28;20409;-74
2023/06/23 09:13:23;;;;;;;5.50;4.88;;;22.50;99.90;;;;;;5084398;28;20055;-73
2023/06/23 09:15:50;;;;;;;7.32;5.35;;;22.60;99.90;;;;;;5089218;28;21205;-74
2023/06/23 09:18:16;;;;;;;8.23;4.80;;;22.60;99.90;;;;;;5076511;28;20122;-75
2023/06/23 09:20:47;;;;;;;8.10;5.30;;;22.60;99.90;;;;;;5096096;28;20039;-76
2023/06/23 09:23:17;;;;;;;7.25;4.78;;;22.70;99.90;;;;;;5082276;28;20055;-74
2023/06/23 09:25:48;;;;;;;5.50;4.30;;;22.80;99.90;;;;;;5100308;28;20521;-74
2023/06/23 09:28:37;;;;;;;5.85;4.68;;;22.80;99.90;;;;;;5066970;28;20048;-70
2023/06/23 09:31:11;;;;;;;6.97;4.72;;;22.90;99.90;;;;;;5088529;28;20036;-71
2023/06/23 09:33:46;;;;;;;7.70;4.85;;;22.90;99.90;;;;;;5093185;27;20051;-72
2023/06/23 09:36:12;;;;;;;6.63;4.43;;;23.00;99.90;;;;;;5066189;28;20047;-71
2023/06/23 09:38:38;;;;;;;5.93;4.60;;;23.00;99.90;;;;;;5069837;28;20426;-72
2023/06/23 09:41:08;;;;;;;6.60;4.63;;;23.10;99.90;;;;;;5090918;28;20116;-72
2023/06/23 09:43:45;;;;;;;5.55;4.20;;;23.10;99.90;;;;;;5074659;28;20069;-73
2023/06/23 09:46:13;;;;;;;6.28;4.65;;;23.20;99.90;;;;;;5088404;28;20083;-73
2023/06/23 09:48:44;;;;;;;6.55;4.60;;;23.30;99.90;;;;;;5074399;28;20051;-73
2023/06/23 09:51:10;;;;;;;4.72;4.20;;;23.40;99.90;;;;;;5100026;28;20516;-72
2023/06/23 09:53:37;;;;;;;5.85;4.40;;;23.40;99.90;;;;;;5078527;28;20537;-74
2023/06/23 09:56:05;;;;;;;6.82;4.72;;;23.50;99.90;;;;;;5097101;28;20051;-72
2023/06/23 09:58:35;;;;;;;6.32;4.57;;;23.50;99.90;;;;;;5082008;28;20035;-72
2023/06/23 10:01:07;;;;;;;5.60;4.50;;;23.50;99.90;;;;;;5078636;28;20051;-72
2023/06/23 10:03:41;;;;;;;6.70;4.25;;;23.60;99.90;;;;;;5080860;28;20062;-72
2023/06/23 10:06:07;;;;;;;5.38;4.10;;;23.60;99.90;;;;;;5069505;28;20040;-70
2023/06/23 10:08:39;;;;;;;5.65;4.30;;;23.80;99.90;;;;;;5098956;28;20127;-71
2023/06/23 10:11:06;;;;;;;7.07;4.20;;;23.80;99.90;;;;;;5076764;28;20043;-75
2023/06/23 10:13:33;;;;;;;6.45;3.97;;;23.90;99.90;;;;;;5087641;28;20371;-75
2023/06/23 10:16:00;;;;;;;6.80;4.10;;;23.90;99.90;;;;;;5075374;28;20409;-74
2023/06/23 10:18:27;;;;;;;4.63;4.20;;;24.00;99.90;;;;;;5088357;28;20044;-72
2023/06/23 10:20:53;;;;;;;;;;;24.00;99.90;;;;;;5091818;28;20078;-77
2023/06/23 10:23:20;;;;;;;5.00;3.83;;;24.10;99.90;;;;;;5078556;28;19931;-75
2023/06/23 10:25:50;;;;;;;6.35;4.03;;;24.20;99.90;;;;;;5090981;28;20043;-71
2023/06/23 10:28:18;;;;;;;4.57;3.92;;;24.30;99.90;;;;;;5090772;28;20482;-73
2023/06/23 10:30:46;;;;;;;3.92;3.58;;;24.40;99.90;;;;;;5087727;28;20591;-74
2023/06/23 10:33:21;;;;;;;4.47;3.50;;;24.50;99.70;;;;;;5084878;28;20094;-75
2023/06/23 10:35:53;;;;;;;5.32;3.90;;;24.60;98.30;;;;;;5070864;28;20040;-74
2023/06/23 10:38:22;;;;;;;5.50;3.85;;;24.60;97.80;;;;;;5100218;28;20676;-74
2023/06/23 10:40:50;;;;;;;3.95;3.55;;;24.60;97.70;;;;;;5091594;28;20047;-74
2023/06/23 10:43:18;;;;;;;5.10;3.90;;;24.60;97.50;;;;;;5096592;27;20149;-72
2023/06/23 10:45:47;;;;;;;4.28;3.70;;;24.70;98.00;;;;;;5089592;28;20073;-72
2023/06/23 10:48:14;;;;;;;6.75;4.05;;;24.70;97.10;;;;;;5095038;28;20047;-75
2023/06/23 10:50:40;;;;;;;5.28;4.05;;;24.80;97.20;;;;;;5079776;28;20062;-75
2023/06/23 10:53:17;;;;;;;6.68;3.95;;;24.80;96.00;;;;;;5090613;28;20279;-74
2023/06/23 10:55:44;;;;;;;4.60;3.92;;;24.80;96.70;;;;;;5084642;28;20052;-74
2023/06/23 10:58:18;;;;;;;5.07;4.28;;;24.80;96.60;;;;;;5090794;28;20075;-74
2023/06/23 11:00:53;;;;;;;4.88;3.80;;;24.90;96.70;;;;;;5084324;28;20472;-74
2023/06/23 11:03:28;;;;;;;5.38;4.22;;;25.00;96.80;;;;;;5085971;28;20445;-74
2023/06/23 11:05:55;;;;;;;5.10;4.10;;;25.10;97.30;;;;;;5087099;28;20046;-76
2023/06/23 11:08:28;;;;;;;5.95;4.28;;;25.20;97.80;;;;;;5086982;28;21946;-73
2023/06/23 11:11:00;;;;;;;5.88;4.22;;;25.20;96.40;;;;;;5086999;28;20040;-72
2023/06/23 11:13:47;;;;;;;4.32;3.88;;;25.30;96.10;;;;;;5087759;28;20062;-73
2023/06/23 11:16:15;;;;;;;6.82;4.70;;;25.40;96.70;;;;;;5097391;28;20119;-74
2023/06/23 11:19:08;;;;;;;4.90;3.83;;;25.50;96.80;;;;;;5101940;28;20047;-73
2023/06/23 11:21:38;;;;;;;7.13;3.95;;;25.60;96.70;;;;;;5090400;27;21423;-72
2023/06/23 11:24:08;;;;;;;5.13;4.30;;;25.50;96.70;;;;;;5095512;28;20050;-76
2023/06/23 11:26:34;;;;;;;6.88;4.00;;;25.60;96.10;;;;;;5096764;28;20171;-74
2023/06/23 11:29:00;;;;;;;5.30;4.00;;;25.60;96.40;;;;;;5092878;27;20047;-74
2023/06/23 11:31:27;;;;;;;4.05;3.60;;;25.60;95.70;;;;;;5070454;28;20047;-74
2023/06/23 11:34:03;;;;;;;4.50;3.75;;;25.50;95.50;;;;;;5091997;28;20446;-73
2023/06/23 11:36:31;;;;;;;6.00;4.00;;;25.50;93.80;;;;;;5073232;28;20389;-73
2023/06/23 11:38:57;;;;;;;5.03;3.80;;;25.50;95.60;;;;;;5095899;28;20047;-74
2023/06/23 11:41:52;;;;;;;7.15;3.92;;;25.50;94.90;;;;;;5088423;28;20484;-74
2023/06/23 11:44:21;;;;;;;4.70;3.75;;;25.60;93.40;;;;;;5056832;28;20051;-72
2023/06/23 11:46:51;;;;;;;4.53;3.08;;;25.60;95.10;;;;;;5096070;28;20494;-73
2023/06/23 11:49:16;;;;;;;;;;;25.80;95.10;;;;;;5097358;28;20058;-72
2023/06/23 11:51:43;;;;;;;4.10;3.40;;;25.90;92.20;;;;;;5096104;28;19924;-75
2023/06/23 11:54:12;;;;;;;5.25;3.33;;;25.90;92.00;;;;;;5093898;27;20058;-74
2023/06/23 11:56:41;;;;;;;4.07;3.10;;;25.90;91.00;;;;;;5093601;28;20538;-74
2023/06/23 11:59:10;;;;;;;5.10;3.15;;;26.00;90.20;;;;;;5090560;27;20070;-75
2023/06/23 12:01:36;;;;;;;4.43;3.63;;;26.00;90.80;;;;;;5071764;28;20134;-73
2023/06/23 12:04:05;;;;;;;5.32;3.88;;;26.00;92.10;;;;;;5093880;28;20054;-73
2023/06/23 12:06:35;;;;;;;6.18;3.63;;;26.10;92.60;;;;;;5094355;28;20059;-75
2023/06/23 12:09:02;;;;;;;4.45;3.70;;;26.10;92.20;;;;;;5087389;28;20067;-72
2023/06/23 12:11:29;;;;;;;5.45;3.40;;;26.20;91.90;;;;;;5091091;28;20081;-72
2023/06/23 12:13:55;;;;;;;;;;;26.10;92.00;;;;;;5076129;28;20135;-74
2023/06/23 12:16:21;;;;;;;6.60;3.80;;;25.90;92.30;;;;;;5078784;28;20445;-75
2023/06/23 12:18:51;;;;;;;4.60;3.78;;;25.90;92.90;;;;;;5065996;28;20058;-74
2023/06/23 12:21:21;;;;;;;5.07;3.30;;;26.00;92.90;;;;;;5073154;27;20561;-74
2023/06/23 12:23:47;;;;;;;5.20;3.10;;;26.00;91.70;;;;;;5082376;28;20048;-73
2023/06/23 12:26:16;;;;;;;3.47;3.00;;;26.00;86.60;;;;;;5076987;28;20478;-74
2023/06/23 12:28:42;;;;;;;3.58;3.03;;;25.80;84.10;;;;;;5100536;28;20305;-74
2023/06/23 12:31:08;;;;;;;5.50;3.30;;;25.80;86.00;;;;;;5104777;28;20084;-75
2023/06/23 12:33:38;;;;;;;6.67;3.37;;;25.90;90.10;;;;;;5091956;28;20043;-74
2023/06/23 12:36:07;;;;;;;5.25;3.30;;;26.10;90.20;;;;;;5094177;27;20108;-75
2023/06/23 12:38:37;;;;;;;3.33;2.75;;;26.20;90.80;;;;;;5100814;28;20054;-72
2023/06/23 12:41:19;;;;;;;3.88;2.90;;;26.40;89.90;;;;;;5082581;28;20043;-75
2023/06/23 12:43:48;;;;;;;4.40;2.97;;;26.40;86.70;;;;;;5098152;28;20130;-74
2023/06/23 12:46:18;;;;;;;4.63;2.85;;;26.40;87.30;;;;;;5087168;28;20046;-76
2023/06/23 12:48:47;;;;;;;4.05;3.10;;;26.50;86.70;;;;;;5094112;28;20058;-76